sensor_id;sensor_type;location;lat;lon;timestamp;P1;durP1;ratioP1;P2;durP2;ratioP2
71734;SDS011;59577;52.122;5.406;2022-09-01T00:02:27;3.22;;;0.50;;
71734;SDS011;59577;52.122;5.406;2022-09-01T00:04:55;1.17;;;0.50;;
71734;SDS011;59577;52.122;5.406;2022-09-01T00:07:24;1.20;;;0.50;;
71734;SDS011;59577;52.122;5.406;2022-09-01T00:09:56;2.17;;;0.50;;
71734;SDS011;59577;52.122;5.406;2022-09-01T00:12:27;3.72;;;0.50;;
71734;SDS011;59577;52.122;5.406;2022-09-01T00:14:54;6.18;;;0.50;;
71734;SDS011;59577;52.122;5.406;2022-09-01T00:17:21;0.88;;;0.50;;
71734;SDS011;59577;52.122;5.406;2022-09-01T00:19:47;1.45;;;0.50;;
71734;SDS011;59577;52.122;5.406;2022-09-01T00:22:14;2.08;;;0.70;;
71734;SDS011;59577;52.122;5.406;2022-09-01T00:24:41;2.38;;;0.55;;
71734;SDS011;59577;52.122;5.406;2022-09-01T00:27:07;1.60;;;0.40;;
71734;SDS011;59577;52.122;5.406;2022-09-01T00:29:34;2.83;;;0.50;;
71734;SDS011;59577;52.122;5.406;2022-09-01T00:32:01;1.30;;;0.53;;
71734;SDS011;59577;52.122;5.406;2022-09-01T00:34:28;1.98;;;0.70;;
71734;SDS011;59577;52.122;5.406;2022-09-01T00:36:54;3.53;;;0.68;;
71734;SDS011;59577;52.122;5.406;2022-09-01T00:39:21;2.42;;;0.50;;
71734;SDS011;59577;52.122;5.406;2022-09-01T00:41:47;2.03;;;0.60;;
71734;SDS011;59577;52.122;5.406;2022-09-01T00:44:17;1.30;;;0.83;;
71734;SDS011;59577;52.122;5.406;2022-09-01T00:46:50;1.60;;;0.52;;
71734;SDS011;59577;52.122;5.406;2022-09-01T00:49:34;1.25;;;0.65;;
71734;SDS011;59577;52.122;5.406;2022-09-01T00:52:09;1.83;;;0.63;;
71734;SDS011;59577;52.122;5.406;2022-09-01T00:54:39;2.50;;;0.70;;
71734;SDS011;59577;52.122;5.406;2022-09-01T00:57:10;2.67;;;0.80;;
71734;SDS011;59577;52.122;5.406;2022-09-01T00:59:38;3.13;;;0.82;;
71734;SDS011;59577;52.122;5.406;2022-09-01T01:02:11;2.20;;;0.63;;
71734;SDS011;59577;52.122;5.406;2022-09-01T01:04:38;1.83;;;0.60;;
71734;SDS011;59577;52.122;5.406;2022-09-01T01:07:07;1.20;;;0.63;;
71734;SDS011;59577;52.122;5.406;2022-09-01T01:09:35;1.67;;;0.63;;
71734;SDS011;59577;52.122;5.406;2022-09-01T01:12:06;3.42;;;0.70;;
71734;SDS011;59577;52.122;5.406;2022-09-01T01:14:35;0.85;;;0.50;;
71734;SDS011;59577;52.122;5.406;2022-09-01T01:17:05;2.92;;;0.73;;
71734;SDS011;59577;52.122;5.406;2022-09-01T01:19:41;1.75;;;0.60;;
71734;SDS011;59577;52.122;5.406;2022-09-01T01:22:34;3.40;;;0.60;;
71734;SDS011;59577;52.122;5.406;2022-09-01T01:25:23;0.75;;;0.52;;
71734;SDS011;59577;52.122;5.406;2022-09-01T01:27:50;1.20;;;0.77;;
71734;SDS011;59577;52.122;5.406;2022-09-01T01:30:18;2.05;;;0.73;;
71734;SDS011;59577;52.122;5.406;2022-09-01T01:32:46;3.42;;;0.95;;
71734;SDS011;59577;52.122;5.406;2022-09-01T01:35:13;1.30;;;0.60;;
71734;SDS011;59577;52.122;5.406;2022-09-01T01:37:42;1.58;;;0.63;;
71734;SDS011;59577;52.122;5.406;2022-09-01T01:40:15;1.35;;;0.60;;
71734;SDS011;59577;52.122;5.406;2022-09-01T01:42:46;1.15;;;0.77;;
71734;SDS011;59577;52.122;5.406;2022-09-01T01:45:16;2.30;;;0.65;;
71734;SDS011;59577;52.122;5.406;2022-09-01T01:47:45;1.93;;;0.60;;
71734;SDS011;59577;52.122;5.406;2022-09-01T01:50:28;1.00;;;0.70;;
71734;SDS011;59577;52.122;5.406;2022-09-01T01:52:58;4.75;;;0.70;;
71734;SDS011;59577;52.122;5.406;2022-09-01T01:55:36;3.00;;;0.65;;
71734;SDS011;59577;52.122;5.406;2022-09-01T01:58:03;3.65;;;0.80;;
71734;SDS011;59577;52.122;5.406;2022-09-01T02:00:30;4.50;;;0.90;;
71734;SDS011;59577;52.122;5.406;2022-09-01T02:02:59;1.50;;;1.00;;
71734;SDS011;59577;52.122;5.406;2022-09-01T02:05:28;1.98;;;0.80;;
71734;SDS011;59577;52.122;5.406;2022-09-01T02:07:59;1.63;;;0.68;;
71734;SDS011;59577;52.122;5.406;2022-09-01T02:10:31;1.63;;;0.90;;
71734;SDS011;59577;52.122;5.406;2022-09-01T02:13:00;5.90;;;0.93;;
71734;SDS011;59577;52.122;5.406;2022-09-01T02:15:33;2.28;;;0.77;;
71734;SDS011;59577;52.122;5.406;2022-09-01T02:18:08;2.13;;;0.70;;
71734;SDS011;59577;52.122;5.406;2022-09-01T02:20:36;1.85;;;0.65;;
71734;SDS011;59577;52.122;5.406;2022-09-01T02:23:02;1.40;;;0.73;;
71734;SDS011;59577;52.122;5.406;2022-09-01T02:25:39;1.73;;;0.63;;
71734;SDS011;59577;52.122;5.406;2022-09-01T02:28:30;1.85;;;0.85;;
71734;SDS011;59577;52.122;5.406;2022-09-01T02:31:00;2.10;;;0.98;;
71734;SDS011;59577;52.122;5.406;2022-09-01T02:33:30;1.90;;;0.90;;
71734;SDS011;59577;52.122;5.406;2022-09-01T02:35:58;4.55;;;0.85;;
71734;SDS011;59577;52.122;5.406;2022-09-01T02:38:27;2.70;;;0.77;;
71734;SDS011;59577;52.122;5.406;2022-09-01T02:40:55;2.38;;;0.70;;
71734;SDS011;59577;52.122;5.406;2022-09-01T02:43:24;1.30;;;0.60;;
71734;SDS011;59577;52.122;5.406;2022-09-01T02:45:54;1.90;;;0.60;;
71734;SDS011;59577;52.122;5.406;2022-09-01T02:48:46;1.67;;;0.70;;
71734;SDS011;59577;52.122;5.406;2022-09-01T02:51:17;3.15;;;0.77;;
71734;SDS011;59577;52.122;5.406;2022-09-01T02:53:45;1.35;;;0.90;;
71734;SDS011;59577;52.122;5.406;2022-09-01T02:56:19;1.58;;;0.70;;
71734;SDS011;59577;52.122;5.406;2022-09-01T02:58:50;1.63;;;0.85;;
71734;SDS011;59577;52.122;5.406;2022-09-01T03:01:19;1.90;;;0.90;;
71734;SDS011;59577;52.122;5.406;2022-09-01T03:03:51;1.02;;;0.80;;
71734;SDS011;59577;52.122;5.406;2022-09-01T03:06:21;1.23;;;0.70;;
71734;SDS011;59577;52.122;5.406;2022-09-01T03:08:53;1.02;;;0.60;;
71734;SDS011;59577;52.122;5.406;2022-09-01T03:11:22;2.78;;;0.75;;
71734;SDS011;59577;52.122;5.406;2022-09-01T03:13:49;1.38;;;0.77;;
71734;SDS011;59577;52.122;5.406;2022-09-01T03:16:16;1.40;;;0.70;;
71734;SDS011;59577;52.122;5.406;2022-09-01T03:18:44;1.73;;;0.88;;
71734;SDS011;59577;52.122;5.406;2022-09-01T03:21:10;1.60;;;0.85;;
71734;SDS011;59577;52.122;5.406;2022-09-01T03:23:41;2.70;;;0.90;;
71734;SDS011;59577;52.122;5.406;2022-09-01T03:26:09;2.22;;;0.90;;
71734;SDS011;59577;52.122;5.406;2022-09-01T03:28:37;3.97;;;1.10;;
71734;SDS011;59577;52.122;5.406;2022-09-01T03:31:03;4.20;;;0.85;;
71734;SDS011;59577;52.122;5.406;2022-09-01T03:33:30;2.28;;;0.75;;
71734;SDS011;59577;52.122;5.406;2022-09-01T03:35:57;2.10;;;0.93;;
71734;SDS011;59577;52.122;5.406;2022-09-01T03:38:24;3.03;;;0.80;;
71734;SDS011;59577;52.122;5.406;2022-09-01T03:40:53;3.40;;;0.77;;
71734;SDS011;59577;52.122;5.406;2022-09-01T03:43:24;3.33;;;0.80;;
71734;SDS011;59577;52.122;5.406;2022-09-01T03:46:01;1.50;;;0.73;;
71734;SDS011;59577;52.122;5.406;2022-09-01T03:48:28;1.65;;;0.70;;
71734;SDS011;59577;52.122;5.406;2022-09-01T03:50:57;1.20;;;0.77;;
71734;SDS011;59577;52.122;5.406;2022-09-01T03:53:29;4.43;;;0.90;;
71734;SDS011;59577;52.122;5.406;2022-09-01T03:55:57;2.30;;;0.70;;
71734;SDS011;59577;52.122;5.406;2022-09-01T03:58:25;1.30;;;0.80;;
71734;SDS011;59577;52.122;5.406;2022-09-01T04:00:53;1.23;;;0.70;;
71734;SDS011;59577;52.122;5.406;2022-09-01T04:03:23;1.52;;;0.70;;
71734;SDS011;59577;52.122;5.406;2022-09-01T04:05:54;1.20;;;0.70;;
71734;SDS011;59577;52.122;5.406;2022-09-01T04:08:21;1.40;;;0.70;;
71734;SDS011;59577;52.122;5.406;2022-09-01T04:10:58;1.77;;;0.80;;
71734;SDS011;59577;52.122;5.406;2022-09-01T04:13:35;1.75;;;0.80;;
71734;SDS011;59577;52.122;5.406;2022-09-01T04:16:04;1.75;;;0.85;;
71734;SDS011;59577;52.122;5.406;2022-09-01T04:18:56;1.70;;;0.60;;
71734;SDS011;59577;52.122;5.406;2022-09-01T04:21:25;1.83;;;0.65;;
71734;SDS011;59577;52.122;5.406;2022-09-01T04:23:51;1.60;;;0.70;;
71734;SDS011;59577;52.122;5.406;2022-09-01T04:26:18;3.92;;;0.70;;
71734;SDS011;59577;52.122;5.406;2022-09-01T04:28:49;1.17;;;0.73;;
71734;SDS011;59577;52.122;5.406;2022-09-01T04:31:17;4.13;;;1.20;;
71734;SDS011;59577;52.122;5.406;2022-09-01T04:33:47;1.23;;;0.88;;
71734;SDS011;59577;52.122;5.406;2022-09-01T04:36:17;0.98;;;0.70;;
71734;SDS011;59577;52.122;5.406;2022-09-01T04:38:45;3.45;;;0.73;;
71734;SDS011;59577;52.122;5.406;2022-09-01T04:41:14;4.32;;;0.98;;
71734;SDS011;59577;52.122;5.406;2022-09-01T04:43:43;1.37;;;1.00;;
71734;SDS011;59577;52.122;5.406;2022-09-01T04:46:13;1.10;;;0.85;;
71734;SDS011;59577;52.122;5.406;2022-09-01T04:48:41;1.63;;;0.82;;
71734;SDS011;59577;52.122;5.406;2022-09-01T04:51:11;2.80;;;1.10;;
71734;SDS011;59577;52.122;5.406;2022-09-01T04:53:40;4.60;;;1.05;;
71734;SDS011;59577;52.122;5.406;2022-09-01T04:56:15;4.53;;;1.07;;
71734;SDS011;59577;52.122;5.406;2022-09-01T04:58:46;4.82;;;1.60;;
71734;SDS011;59577;52.122;5.406;2022-09-01T05:01:14;9.23;;;1.33;;
71734;SDS011;59577;52.122;5.406;2022-09-01T05:03:43;8.57;;;1.60;;
71734;SDS011;59577;52.122;5.406;2022-09-01T05:06:14;7.85;;;1.13;;
71734;SDS011;59577;52.122;5.406;2022-09-01T05:08:42;6.70;;;1.23;;
71734;SDS011;59577;52.122;5.406;2022-09-01T05:11:11;1.73;;;0.95;;
71734;SDS011;59577;52.122;5.406;2022-09-01T05:13:43;3.90;;;0.95;;
71734;SDS011;59577;52.122;5.406;2022-09-01T05:16:12;3.47;;;0.90;;
71734;SDS011;59577;52.122;5.406;2022-09-01T05:18:41;1.98;;;1.00;;
71734;SDS011;59577;52.122;5.406;2022-09-01T05:21:13;3.17;;;1.00;;
71734;SDS011;59577;52.122;5.406;2022-09-01T05:23:42;1.30;;;0.98;;
71734;SDS011;59577;52.122;5.406;2022-09-01T05:26:14;2.38;;;1.38;;
71734;SDS011;59577;52.122;5.406;2022-09-01T05:28:43;2.25;;;1.00;;
71734;SDS011;59577;52.122;5.406;2022-09-01T05:31:10;3.20;;;1.13;;
71734;SDS011;59577;52.122;5.406;2022-09-01T05:33:38;3.33;;;1.67;;
71734;SDS011;59577;52.122;5.406;2022-09-01T05:36:11;4.55;;;1.10;;
71734;SDS011;59577;52.122;5.406;2022-09-01T05:38:40;4.13;;;0.90;;
71734;SDS011;59577;52.122;5.406;2022-09-01T05:41:08;1.98;;;0.90;;
71734;SDS011;59577;52.122;5.406;2022-09-01T05:43:36;1.48;;;0.98;;
71734;SDS011;59577;52.122;5.406;2022-09-01T05:46:07;2.80;;;1.00;;
71734;SDS011;59577;52.122;5.406;2022-09-01T05:48:34;9.23;;;1.20;;
71734;SDS011;59577;52.122;5.406;2022-09-01T05:51:05;7.35;;;1.10;;
71734;SDS011;59577;52.122;5.406;2022-09-01T05:53:53;10.93;;;1.02;;
71734;SDS011;59577;52.122;5.406;2022-09-01T05:56:25;9.60;;;1.35;;
71734;SDS011;59577;52.122;5.406;2022-09-01T05:58:52;6.10;;;1.40;;
71734;SDS011;59577;52.122;5.406;2022-09-01T06:01:40;3.42;;;0.90;;
71734;SDS011;59577;52.122;5.406;2022-09-01T06:04:12;4.28;;;1.30;;
71734;SDS011;59577;52.122;5.406;2022-09-01T06:06:40;3.03;;;1.02;;
71734;SDS011;59577;52.122;5.406;2022-09-01T06:09:31;5.40;;;0.90;;
71734;SDS011;59577;52.122;5.406;2022-09-01T06:11:58;2.35;;;1.00;;
71734;SDS011;59577;52.122;5.406;2022-09-01T06:14:24;1.98;;;1.00;;
71734;SDS011;59577;52.122;5.406;2022-09-01T06:16:51;4.55;;;1.00;;
71734;SDS011;59577;52.122;5.406;2022-09-01T06:19:19;4.40;;;0.90;;
71734;SDS011;59577;52.122;5.406;2022-09-01T06:21:46;2.00;;;0.88;;
71734;SDS011;59577;52.122;5.406;2022-09-01T06:24:13;4.85;;;1.23;;
71734;SDS011;59577;52.122;5.406;2022-09-01T06:26:40;2.67;;;1.00;;
71734;SDS011;59577;52.122;5.406;2022-09-01T06:29:08;3.22;;;1.08;;
71734;SDS011;59577;52.122;5.406;2022-09-01T06:31:40;3.13;;;0.95;;
71734;SDS011;59577;52.122;5.406;2022-09-01T06:34:08;3.15;;;0.90;;
71734;SDS011;59577;52.122;5.406;2022-09-01T06:36:37;2.83;;;1.10;;
71734;SDS011;59577;52.122;5.406;2022-09-01T06:39:09;3.13;;;1.15;;
71734;SDS011;59577;52.122;5.406;2022-09-01T06:41:42;2.78;;;0.90;;
71734;SDS011;59577;52.122;5.406;2022-09-01T06:44:11;1.48;;;0.90;;
71734;SDS011;59577;52.122;5.406;2022-09-01T06:46:39;1.98;;;0.80;;
71734;SDS011;59577;52.122;5.406;2022-09-01T06:49:06;2.27;;;0.83;;
71734;SDS011;59577;52.122;5.406;2022-09-01T06:51:37;4.63;;;0.75;;
71734;SDS011;59577;52.122;5.406;2022-09-01T06:54:04;3.22;;;0.70;;
71734;SDS011;59577;52.122;5.406;2022-09-01T06:56:39;1.00;;;0.77;;
71734;SDS011;59577;52.122;5.406;2022-09-01T06:59:16;3.60;;;0.80;;
71734;SDS011;59577;52.122;5.406;2022-09-01T07:01:43;1.35;;;0.60;;
71734;SDS011;59577;52.122;5.406;2022-09-01T07:04:10;3.22;;;0.80;;
71734;SDS011;59577;52.122;5.406;2022-09-01T07:06:38;1.38;;;0.80;;
71734;SDS011;59577;52.122;5.406;2022-09-01T07:09:27;2.65;;;0.90;;
71734;SDS011;59577;52.122;5.406;2022-09-01T07:12:12;3.15;;;1.02;;
71734;SDS011;59577;52.122;5.406;2022-09-01T07:14:55;1.25;;;0.80;;
71734;SDS011;59577;52.122;5.406;2022-09-01T07:17:51;2.67;;;0.80;;
71734;SDS011;59577;52.122;5.406;2022-09-01T07:20:19;3.08;;;0.90;;
71734;SDS011;59577;52.122;5.406;2022-09-01T07:22:50;1.98;;;0.60;;
71734;SDS011;59577;52.122;5.406;2022-09-01T07:25:34;1.70;;;0.80;;
71734;SDS011;59577;52.122;5.406;2022-09-01T07:28:23;0.93;;;0.70;;
71734;SDS011;59577;52.122;5.406;2022-09-01T07:31:02;3.37;;;0.70;;
71734;SDS011;59577;52.122;5.406;2022-09-01T07:33:51;1.90;;;0.47;;
71734;SDS011;59577;52.122;5.406;2022-09-01T07:36:40;5.47;;;0.80;;
71734;SDS011;59577;52.122;5.406;2022-09-01T07:39:28;4.13;;;0.60;;
71734;SDS011;59577;52.122;5.406;2022-09-01T07:42:17;2.55;;;0.60;;
71734;SDS011;59577;52.122;5.406;2022-09-01T07:45:08;2.97;;;0.87;;
71734;SDS011;59577;52.122;5.406;2022-09-01T07:47:53;2.50;;;0.90;;
71734;SDS011;59577;52.122;5.406;2022-09-01T07:50:21;3.15;;;0.50;;
71734;SDS011;59577;52.122;5.406;2022-09-01T07:53:05;1.58;;;0.70;;
71734;SDS011;59577;52.122;5.406;2022-09-01T07:55:33;2.10;;;0.70;;
71734;SDS011;59577;52.122;5.406;2022-09-01T07:58:00;3.40;;;0.60;;
71734;SDS011;59577;52.122;5.406;2022-09-01T08:00:26;1.15;;;0.77;;
71734;SDS011;59577;52.122;5.406;2022-09-01T08:02:56;2.67;;;0.70;;
71734;SDS011;59577;52.122;5.406;2022-09-01T08:05:24;4.50;;;0.70;;
71734;SDS011;59577;52.122;5.406;2022-09-01T08:15:26;3.65;;;0.73;;
71734;SDS011;59577;52.122;5.406;2022-09-01T08:18:13;4.72;;;0.80;;
71734;SDS011;59577;52.122;5.406;2022-09-01T08:20:40;4.70;;;0.90;;
71734;SDS011;59577;52.122;5.406;2022-09-01T08:23:11;12.85;;;1.40;;
71734;SDS011;59577;52.122;5.406;2022-09-01T08:25:41;1.77;;;0.60;;
71734;SDS011;59577;52.122;5.406;2022-09-01T08:28:09;3.65;;;0.90;;
71734;SDS011;59577;52.122;5.406;2022-09-01T08:30:38;1.45;;;0.80;;
71734;SDS011;59577;52.122;5.406;2022-09-01T08:33:06;1.35;;;0.70;;
71734;SDS011;59577;52.122;5.406;2022-09-01T08:35:40;1.98;;;0.60;;
71734;SDS011;59577;52.122;5.406;2022-09-01T08:38:08;2.27;;;0.50;;
71734;SDS011;59577;52.122;5.406;2022-09-01T08:40:35;3.45;;;0.70;;
71734;SDS011;59577;52.122;5.406;2022-09-01T08:43:15;2.70;;;0.80;;
71734;SDS011;59577;52.122;5.406;2022-09-01T08:45:51;1.98;;;0.63;;
71734;SDS011;59577;52.122;5.406;2022-09-01T08:48:24;3.25;;;0.80;;
71734;SDS011;59577;52.122;5.406;2022-09-01T08:56:56;4.00;;;0.88;;
71734;SDS011;59577;52.122;5.406;2022-09-01T08:59:27;2.10;;;0.60;;
71734;SDS011;59577;52.122;5.406;2022-09-01T09:02:05;2.67;;;0.80;;
71734;SDS011;59577;52.122;5.406;2022-09-01T09:04:52;1.80;;;0.80;;
71734;SDS011;59577;52.122;5.406;2022-09-01T09:10:54;1.48;;;0.50;;
71734;SDS011;59577;52.122;5.406;2022-09-01T09:13:34;5.18;;;0.70;;
71734;SDS011;59577;52.122;5.406;2022-09-01T09:18:55;4.30;;;0.67;;
71734;SDS011;59577;52.122;5.406;2022-09-01T09:21:34;2.50;;;0.80;;
71734;SDS011;59577;52.122;5.406;2022-09-01T09:24:09;1.83;;;0.68;;
71734;SDS011;59577;52.122;5.406;2022-09-01T09:26:51;3.85;;;0.65;;
71734;SDS011;59577;52.122;5.406;2022-09-01T09:29:18;1.77;;;0.60;;
71734;SDS011;59577;52.122;5.406;2022-09-01T09:31:48;1.63;;;0.50;;
71734;SDS011;59577;52.122;5.406;2022-09-01T09:34:30;1.58;;;0.52;;
71734;SDS011;59577;52.122;5.406;2022-09-01T09:40:15;0.73;;;0.50;;
71734;SDS011;59577;52.122;5.406;2022-09-01T09:45:28;1.07;;;0.43;;
71734;SDS011;59577;52.122;5.406;2022-09-01T09:48:03;1.95;;;0.40;;
71734;SDS011;59577;52.122;5.406;2022-09-01T09:50:51;2.63;;;0.40;;
71734;SDS011;59577;52.122;5.406;2022-09-01T09:58:41;1.03;;;0.50;;
71734;SDS011;59577;52.122;5.406;2022-09-01T10:03:53;3.33;;;0.70;;
71734;SDS011;59577;52.122;5.406;2022-09-01T10:06:39;2.45;;;0.68;;
71734;SDS011;59577;52.122;5.406;2022-09-01T10:09:14;1.13;;;0.60;;
71734;SDS011;59577;52.122;5.406;2022-09-01T10:11:58;0.70;;;0.57;;
71734;SDS011;59577;52.122;5.406;2022-09-01T10:14:28;0.55;;;0.35;;
71734;SDS011;59577;52.122;5.406;2022-09-01T10:17:25;2.28;;;0.60;;
71734;SDS011;59577;52.122;5.406;2022-09-01T10:19:57;4.60;;;0.63;;
71734;SDS011;59577;52.122;5.406;2022-09-01T10:22:31;1.45;;;0.60;;
71734;SDS011;59577;52.122;5.406;2022-09-01T10:24:59;1.20;;;0.60;;
71734;SDS011;59577;52.122;5.406;2022-09-01T10:27:28;0.80;;;0.50;;
71734;SDS011;59577;52.122;5.406;2022-09-01T10:35:33;3.45;;;0.70;;
71734;SDS011;59577;52.122;5.406;2022-09-01T10:38:07;0.70;;;0.40;;
71734;SDS011;59577;52.122;5.406;2022-09-01T10:40:47;1.67;;;0.60;;
71734;SDS011;59577;52.122;5.406;2022-09-01T10:43:37;0.70;;;0.50;;
71734;SDS011;59577;52.122;5.406;2022-09-01T10:48:52;1.67;;;0.43;;
71734;SDS011;59577;52.122;5.406;2022-09-01T10:54:00;1.42;;;0.60;;
71734;SDS011;59577;52.122;5.406;2022-09-01T10:59:27;2.08;;;0.43;;
71734;SDS011;59577;52.122;5.406;2022-09-01T11:02:11;1.05;;;0.60;;
71734;SDS011;59577;52.122;5.406;2022-09-01T11:10:26;1.20;;;0.40;;
71734;SDS011;59577;52.122;5.406;2022-09-01T11:15:47;0.60;;;0.40;;
71734;SDS011;59577;52.122;5.406;2022-09-01T11:18:15;2.30;;;0.40;;
71734;SDS011;59577;52.122;5.406;2022-09-01T11:20:52;0.60;;;0.32;;
71734;SDS011;59577;52.122;5.406;2022-09-01T11:23:24;1.80;;;0.40;;
71734;SDS011;59577;52.122;5.406;2022-09-01T11:25:59;4.43;;;0.40;;
71734;SDS011;59577;52.122;5.406;2022-09-01T11:28:44;1.77;;;0.40;;
71734;SDS011;59577;52.122;5.406;2022-09-01T11:39:23;0.45;;;0.28;;
71734;SDS011;59577;52.122;5.406;2022-09-01T11:42:00;0.70;;;0.35;;
71734;SDS011;59577;52.122;5.406;2022-09-01T11:44:57;0.93;;;0.33;;
71734;SDS011;59577;52.122;5.406;2022-09-01T11:50:28;4.90;;;0.30;;
71734;SDS011;59577;52.122;5.406;2022-09-01T11:52:56;1.75;;;0.38;;
71734;SDS011;59577;52.122;5.406;2022-09-01T11:55:45;3.97;;;0.30;;
71734;SDS011;59577;52.122;5.406;2022-09-01T12:00:53;0.55;;;0.30;;
71734;SDS011;59577;52.122;5.406;2022-09-01T12:05:57;0.95;;;0.30;;
71734;SDS011;59577;52.122;5.406;2022-09-01T12:08:28;4.60;;;0.40;;
71734;SDS011;59577;52.122;5.406;2022-09-01T12:11:09;0.97;;;0.30;;
71734;SDS011;59577;52.122;5.406;2022-09-01T12:13:38;0.80;;;0.30;;
71734;SDS011;59577;52.122;5.406;2022-09-01T12:16:07;0.70;;;0.28;;
71734;SDS011;59577;52.122;5.406;2022-09-01T12:18:48;0.55;;;0.30;;
71734;SDS011;59577;52.122;5.406;2022-09-01T12:21:19;2.10;;;0.40;;
71734;SDS011;59577;52.122;5.406;2022-09-01T12:24:12;1.33;;;0.30;;
71734;SDS011;59577;52.122;5.406;2022-09-01T12:26:40;0.95;;;0.30;;
71734;SDS011;59577;52.122;5.406;2022-09-01T12:29:07;3.90;;;0.30;;
71734;SDS011;59577;52.122;5.406;2022-09-01T12:31:36;2.40;;;0.38;;
71734;SDS011;59577;52.122;5.406;2022-09-01T12:34:05;1.35;;;0.40;;
71734;SDS011;59577;52.122;5.406;2022-09-01T12:37:06;2.63;;;0.30;;
71734;SDS011;59577;52.122;5.406;2022-09-01T12:39:40;5.22;;;0.40;;
71734;SDS011;59577;52.122;5.406;2022-09-01T12:44:51;2.65;;;0.47;;
71734;SDS011;59577;52.122;5.406;2022-09-01T12:52:51;1.95;;;0.30;;
71734;SDS011;59577;52.122;5.406;2022-09-01T12:55:27;2.22;;;0.30;;
71734;SDS011;59577;52.122;5.406;2022-09-01T12:58:19;1.40;;;0.30;;
71734;SDS011;59577;52.122;5.406;2022-09-01T13:01:01;0.90;;;0.40;;
71734;SDS011;59577;52.122;5.406;2022-09-01T13:03:41;1.37;;;0.40;;
71734;SDS011;59577;52.122;5.406;2022-09-01T13:06:28;2.50;;;0.38;;
71734;SDS011;59577;52.122;5.406;2022-09-01T13:08:54;1.95;;;0.40;;
71734;SDS011;59577;52.122;5.406;2022-09-01T13:11:22;2.83;;;0.70;;
71734;SDS011;59577;52.122;5.406;2022-09-01T13:13:48;3.92;;;0.40;;
71734;SDS011;59577;52.122;5.406;2022-09-01T13:16:14;1.60;;;0.30;;
71734;SDS011;59577;52.122;5.406;2022-09-01T13:18:42;3.05;;;0.40;;
71734;SDS011;59577;52.122;5.406;2022-09-01T13:21:29;0.77;;;0.35;;
71734;SDS011;59577;52.122;5.406;2022-09-01T13:23:57;1.38;;;0.40;;
71734;SDS011;59577;52.122;5.406;2022-09-01T13:26:23;1.45;;;0.20;;
71734;SDS011;59577;52.122;5.406;2022-09-01T13:28:51;1.63;;;0.50;;
71734;SDS011;59577;52.122;5.406;2022-09-01T13:31:18;2.75;;;0.38;;
71734;SDS011;59577;52.122;5.406;2022-09-01T13:34:01;0.80;;;0.40;;
71734;SDS011;59577;52.122;5.406;2022-09-01T13:36:48;3.75;;;0.93;;
71734;SDS011;59577;52.122;5.406;2022-09-01T13:39:17;3.45;;;0.93;;
71734;SDS011;59577;52.122;5.406;2022-09-01T13:41:45;2.67;;;0.40;;
71734;SDS011;59577;52.122;5.406;2022-09-01T13:44:13;2.95;;;0.40;;
71734;SDS011;59577;52.122;5.406;2022-09-01T13:46:39;0.68;;;0.30;;
71734;SDS011;59577;52.122;5.406;2022-09-01T13:49:26;2.55;;;0.30;;
71734;SDS011;59577;52.122;5.406;2022-09-01T13:52:13;1.90;;;0.40;;
71734;SDS011;59577;52.122;5.406;2022-09-01T13:54:39;3.70;;;0.40;;
71734;SDS011;59577;52.122;5.406;2022-09-01T13:57:07;1.55;;;0.40;;
71734;SDS011;59577;52.122;5.406;2022-09-01T13:59:33;2.05;;;0.30;;
71734;SDS011;59577;52.122;5.406;2022-09-01T14:02:00;1.08;;;0.32;;
71734;SDS011;59577;52.122;5.406;2022-09-01T14:04:30;0.60;;;0.40;;
71734;SDS011;59577;52.122;5.406;2022-09-01T14:06:56;0.83;;;0.30;;
71734;SDS011;59577;52.122;5.406;2022-09-01T14:09:24;6.50;;;0.45;;
71734;SDS011;59577;52.122;5.406;2022-09-01T14:11:52;2.10;;;0.50;;
71734;SDS011;59577;52.122;5.406;2022-09-01T14:14:19;0.90;;;0.30;;
71734;SDS011;59577;52.122;5.406;2022-09-01T14:16:46;2.20;;;0.30;;
71734;SDS011;59577;52.122;5.406;2022-09-01T14:19:13;2.03;;;0.40;;
71734;SDS011;59577;52.122;5.406;2022-09-01T14:21:39;2.13;;;0.32;;
71734;SDS011;59577;52.122;5.406;2022-09-01T14:24:07;1.67;;;0.40;;
71734;SDS011;59577;52.122;5.406;2022-09-01T14:26:33;2.20;;;0.40;;
71734;SDS011;59577;52.122;5.406;2022-09-01T14:31:57;1.57;;;0.30;;
71734;SDS011;59577;52.122;5.406;2022-09-01T14:34:24;5.45;;;0.30;;
71734;SDS011;59577;52.122;5.406;2022-09-01T14:36:52;1.75;;;0.28;;
71734;SDS011;59577;52.122;5.406;2022-09-01T14:39:21;2.10;;;0.40;;
71734;SDS011;59577;52.122;5.406;2022-09-01T14:41:48;2.10;;;0.30;;
71734;SDS011;59577;52.122;5.406;2022-09-01T14:44:15;1.67;;;0.30;;
71734;SDS011;59577;52.122;5.406;2022-09-01T14:46:41;1.48;;;0.25;;
71734;SDS011;59577;52.122;5.406;2022-09-01T14:49:09;2.80;;;0.40;;
71734;SDS011;59577;52.122;5.406;2022-09-01T14:51:36;3.72;;;0.30;;
71734;SDS011;59577;52.122;5.406;2022-09-01T14:54:23;2.00;;;0.60;;
71734;SDS011;59577;52.122;5.406;2022-09-01T14:56:49;1.90;;;0.20;;
71734;SDS011;59577;52.122;5.406;2022-09-01T14:59:36;2.33;;;0.20;;
71734;SDS011;59577;52.122;5.406;2022-09-01T15:02:03;1.15;;;0.40;;
71734;SDS011;59577;52.122;5.406;2022-09-01T15:04:30;1.48;;;0.30;;
71734;SDS011;59577;52.122;5.406;2022-09-01T15:06:57;2.28;;;0.40;;
71734;SDS011;59577;52.122;5.406;2022-09-01T15:09:24;0.87;;;0.30;;
71734;SDS011;59577;52.122;5.406;2022-09-01T15:11:51;1.73;;;0.30;;
71734;SDS011;59577;52.122;5.406;2022-09-01T15:14:17;1.13;;;0.30;;
71734;SDS011;59577;52.122;5.406;2022-09-01T15:16:44;0.50;;;0.30;;
71734;SDS011;59577;52.122;5.406;2022-09-01T15:19:12;1.55;;;0.30;;
71734;SDS011;59577;52.122;5.406;2022-09-01T15:21:39;0.80;;;0.30;;
71734;SDS011;59577;52.122;5.406;2022-09-01T15:24:08;0.95;;;0.30;;
71734;SDS011;59577;52.122;5.406;2022-09-01T15:26:36;1.52;;;0.47;;
71734;SDS011;59577;52.122;5.406;2022-09-01T15:29:06;0.70;;;0.30;;
71734;SDS011;59577;52.122;5.406;2022-09-01T15:31:38;1.10;;;0.40;;
71734;SDS011;59577;52.122;5.406;2022-09-01T15:34:05;2.90;;;0.30;;
71734;SDS011;59577;52.122;5.406;2022-09-01T15:36:34;1.25;;;0.30;;
71734;SDS011;59577;52.122;5.406;2022-09-01T15:39:01;4.47;;;0.30;;
71734;SDS011;59577;52.122;5.406;2022-09-01T15:41:29;1.05;;;0.38;;
71734;SDS011;59577;52.122;5.406;2022-09-01T15:43:58;1.10;;;0.30;;
71734;SDS011;59577;52.122;5.406;2022-09-01T15:46:25;2.87;;;0.40;;
71734;SDS011;59577;52.122;5.406;2022-09-01T15:48:58;1.00;;;0.40;;
71734;SDS011;59577;52.122;5.406;2022-09-01T15:51:31;1.23;;;0.38;;
71734;SDS011;59577;52.122;5.406;2022-09-01T15:54:09;3.92;;;0.30;;
71734;SDS011;59577;52.122;5.406;2022-09-01T15:56:38;2.85;;;0.30;;
71734;SDS011;59577;52.122;5.406;2022-09-01T15:59:05;1.47;;;0.20;;
71734;SDS011;59577;52.122;5.406;2022-09-01T16:01:34;2.85;;;0.50;;
71734;SDS011;59577;52.122;5.406;2022-09-01T16:04:03;1.00;;;0.30;;
71734;SDS011;59577;52.122;5.406;2022-09-01T16:06:30;2.20;;;0.38;;
71734;SDS011;59577;52.122;5.406;2022-09-01T16:08:57;3.35;;;0.40;;
71734;SDS011;59577;52.122;5.406;2022-09-01T16:11:24;3.60;;;0.40;;
71734;SDS011;59577;52.122;5.406;2022-09-01T16:13:52;3.22;;;0.50;;
71734;SDS011;59577;52.122;5.406;2022-09-01T16:19:40;1.63;;;0.30;;
71734;SDS011;59577;52.122;5.406;2022-09-01T16:22:00;0.55;;;0.30;;
71734;SDS011;59577;52.122;5.406;2022-09-01T16:24:42;1.80;;;0.30;;
71734;SDS011;59577;52.122;5.406;2022-09-01T16:27:14;3.35;;;0.30;;
71734;SDS011;59577;52.122;5.406;2022-09-01T16:29:47;4.22;;;1.05;;
71734;SDS011;59577;52.122;5.406;2022-09-01T16:32:18;5.30;;;0.38;;
71734;SDS011;59577;52.122;5.406;2022-09-01T16:34:46;1.15;;;0.77;;
71734;SDS011;59577;52.122;5.406;2022-09-01T16:43:13;1.08;;;0.38;;
71734;SDS011;59577;52.122;5.406;2022-09-01T16:48:42;3.50;;;0.40;;
71734;SDS011;59577;52.122;5.406;2022-09-01T16:51:18;0.97;;;0.30;;
71734;SDS011;59577;52.122;5.406;2022-09-01T16:53:59;1.83;;;0.40;;